createdAt,value
2023-01-28T00:01:53.410Z,97393.00
2023-01-28T00:04:20.190Z,97397.00
2023-01-28T00:06:46.942Z,97390.00
2023-01-28T00:09:13.811Z,97388.00
2023-01-28T00:11:41.013Z,97397.00
2023-01-28T00:14:08.321Z,97389.00
2023-01-28T00:16:35.194Z,97390.00
2023-01-28T00:19:02.076Z,97392.00
2023-01-28T00:21:28.975Z,97388.00
2023-01-28T00:23:57.242Z,97386.00
2023-01-28T00:26:25.503Z,97385.00
2023-01-28T00:28:52.348Z,97375.00
2023-01-28T00:31:23.810Z,97377.00
2023-01-28T00:33:50.980Z,97372.00
2023-01-28T00:36:19.203Z,97378.00
2023-01-28T00:38:57.825Z,97373.00
2023-01-28T00:41:28.107Z,97386.00
2023-01-28T00:43:55.299Z,97386.00
2023-01-28T00:46:23.489Z,97378.00
2023-01-28T00:48:50.407Z,97383.00
2023-01-28T00:51:20.121Z,97373.00
2023-01-28T00:53:47.477Z,97373.00
2023-01-28T00:56:17.713Z,97372.00
2023-01-28T00:58:45.097Z,97377.00
2023-01-28T01:01:26.504Z,97378.00
2023-01-28T01:04:03.504Z,97382.00
2023-01-28T01:06:35.439Z,97381.00
2023-01-28T01:09:06.123Z,97379.00
2023-01-28T01:11:34.871Z,97373.00
2023-01-28T01:14:05.387Z,97376.00
2023-01-28T01:16:35.332Z,97362.00
2023-01-28T01:19:03.279Z,97371.00
2023-01-28T01:21:31.063Z,97374.00
2023-01-28T01:23:58.312Z,97383.00
2023-01-28T01:26:27.828Z,97375.00
2023-01-28T01:28:55.024Z,97377.00
2023-01-28T01:31:23.016Z,97373.00
2023-01-28T01:33:51.447Z,97382.00
2023-01-28T01:36:20.179Z,97384.00
2023-01-28T01:38:47.101Z,97379.00
2023-01-28T01:41:30.915Z,97384.00
2023-01-28T01:44:01.060Z,97385.00
2023-01-28T01:46:45.206Z,97379.00
2023-01-28T01:49:21.879Z,97392.00
2023-01-28T01:51:53.818Z,97388.00
2023-01-28T01:54:23.690Z,97391.00
2023-01-28T01:56:51.654Z,97389.00
2023-01-28T01:59:26.115Z,97388.00
2023-01-28T02:01:53.940Z,97386.00
2023-01-28T02:04:29.190Z,97387.00
2023-01-28T02:06:58.767Z,97385.00
2023-01-28T02:09:29.570Z,97384.00
2023-01-28T02:12:06.010Z,97387.00
2023-01-28T02:14:36.994Z,97388.00
2023-01-28T02:17:05.104Z,97377.00
2023-01-28T02:19:44.650Z,97379.00
2023-01-28T02:22:55.086Z,97366.00
2023-01-28T02:26:08.493Z,97384.00
2023-01-28T02:29:15.436Z,97378.00
2023-01-28T02:32:14.017Z,97382.00
2023-01-28T02:34:51.700Z,97384.00
2023-01-28T02:37:28.016Z,97386.00
2023-01-28T02:40:01.318Z,97391.00
2023-01-28T02:42:32.698Z,97390.00
2023-01-28T02:44:59.867Z,97386.00
2023-01-28T02:47:45.336Z,97385.00
2023-01-28T02:50:19.881Z,97379.00
2023-01-28T02:53:19.211Z,97394.00
2023-01-28T02:56:04.678Z,97388.00
2023-01-28T02:58:46.950Z,97392.00
2023-01-28T03:01:36.801Z,97394.00
2023-01-28T03:04:25.845Z,97387.00
2023-01-28T03:06:58.560Z,97394.00
2023-01-28T03:09:27.098Z,97394.00
2023-01-28T03:12:17.940Z,97396.00
2023-01-28T03:15:09.207Z,97396.00
2023-01-28T03:18:05.512Z,97393.00
2023-01-28T03:21:29.425Z,97404.00
2023-01-28T03:24:42.807Z,97408.00
2023-01-28T03:27:58.493Z,97408.00
2023-01-28T03:30:56.372Z,97412.00
2023-01-28T03:33:43.494Z,97413.00
2023-01-28T03:36:29.717Z,97409.00
2023-01-28T03:38:58.409Z,97411.00
2023-01-28T03:41:27.052Z,97415.00
2023-01-28T03:43:54.748Z,97413.00
2023-01-28T03:46:21.588Z,97405.00
2023-01-28T03:48:48.380Z,97413.00
2023-01-28T03:51:15.514Z,97415.00
2023-01-28T03:53:42.300Z,97407.00
2023-01-28T03:56:09.073Z,97410.00
2023-01-28T03:58:56.483Z,97415.00
2023-01-28T04:01:24.197Z,97423.00
2023-01-28T04:03:51.235Z,97418.00
2023-01-28T04:06:17.982Z,97416.00
2023-01-28T04:08:48.320Z,97418.00
2023-01-28T04:11:20.035Z,97423.00
2023-01-28T04:13:48.870Z,97417.00
2023-01-28T04:16:17.569Z,97420.00
2023-01-28T04:18:45.106Z,97424.00
2023-01-28T04:21:12.633Z,97426.00
2023-01-28T04:23:39.454Z,97422.00
2023-01-28T04:26:06.230Z,97420.00
2023-01-28T04:28:33.015Z,97426.00
2023-01-28T04:30:59.879Z,97425.00
2023-01-28T04:33:26.742Z,97420.00
2023-01-28T04:35:53.580Z,97425.00
2023-01-28T04:38:20.342Z,97433.00
2023-01-28T04:40:53.574Z,97428.00
2023-01-28T04:43:20.699Z,97429.00
2023-01-28T04:45:48.645Z,97423.00
2023-01-28T04:48:16.999Z,97429.00
2023-01-28T04:50:45.591Z,97435.00
2023-01-28T04:53:13.118Z,97440.00
2023-01-28T04:55:40.061Z,97440.00
2023-01-28T04:58:06.913Z,97440.00
2023-01-28T05:00:33.944Z,97440.00
2023-01-28T05:03:00.763Z,97442.00
2023-01-28T05:05:27.546Z,97431.00
2023-01-28T05:07:56.153Z,97447.00
2023-01-28T05:10:24.369Z,97443.00
2023-01-28T05:12:51.200Z,97445.00
2023-01-28T05:15:19.887Z,97452.00
2023-01-28T05:17:47.472Z,97451.00
2023-01-28T05:20:15.455Z,97451.00
2023-01-28T05:22:42.948Z,97448.00
2023-01-28T05:25:09.964Z,97457.00
2023-01-28T05:27:36.744Z,97449.00
2023-01-28T05:30:06.490Z,97451.00
2023-01-28T05:32:33.545Z,97448.00
2023-01-28T05:35:00.357Z,97452.00
2023-01-28T05:37:27.203Z,97451.00
2023-01-28T05:39:54.000Z,97454.00
2023-01-28T05:42:22.533Z,97457.00
2023-01-28T05:44:49.356Z,97469.00
2023-01-28T05:47:16.447Z,97463.00
2023-01-28T05:49:43.242Z,97465.00
2023-01-28T05:52:10.053Z,97461.00
2023-01-28T05:54:36.873Z,97467.00
2023-01-28T05:57:04.213Z,97468.00
2023-01-28T05:59:31.598Z,97469.00
2023-01-28T06:01:58.457Z,97469.00
2023-01-28T06:04:25.334Z,97467.00
2023-01-28T06:06:52.125Z,97472.00
2023-01-28T06:09:18.943Z,97468.00
2023-01-28T06:11:46.273Z,97475.00
2023-01-28T06:14:13.175Z,97477.00
2023-01-28T06:16:40.021Z,97479.00
2023-01-28T06:19:07.013Z,97473.00
2023-01-28T06:21:33.820Z,97477.00
2023-01-28T06:24:00.647Z,97484.00
2023-01-28T06:26:27.526Z,97491.00
2023-01-28T06:28:54.302Z,97490.00
2023-01-28T06:31:21.080Z,97489.00
2023-01-28T06:33:47.925Z,97485.00
2023-01-28T06:36:14.721Z,97495.00
2023-01-28T06:38:41.513Z,97489.00
2023-01-28T06:41:08.261Z,97512.00
2023-01-28T06:43:35.025Z,97513.00
2023-01-28T06:46:02.122Z,97520.00
2023-01-28T06:48:29.172Z,97519.00
2023-01-28T06:50:55.936Z,97514.00
2023-01-28T06:53:22.881Z,97524.00
2023-01-28T06:55:49.809Z,97526.00
2023-01-28T06:58:16.998Z,97528.00
2023-01-28T07:00:43.813Z,97530.00
2023-01-28T07:03:10.702Z,97532.00
2023-01-28T07:05:37.704Z,97531.00
2023-01-28T07:08:04.591Z,97535.00
2023-01-28T07:10:31.457Z,97541.00
2023-01-28T07:12:58.267Z,97534.00
2023-01-28T07:15:25.045Z,97528.00
2023-01-28T07:17:51.920Z,97525.00
2023-01-28T07:20:19.077Z,97544.00
2023-01-28T07:22:46.617Z,97537.00
2023-01-28T07:25:14.595Z,97542.00
2023-01-28T07:27:53.532Z,97542.00
2023-01-28T07:30:21.767Z,97545.00
2023-01-28T07:32:55.033Z,97553.00
2023-01-28T07:35:22.180Z,97547.00
2023-01-28T07:37:58.221Z,97554.00
2023-01-28T07:40:26.189Z,97551.00
2023-01-28T07:42:55.217Z,97554.00
2023-01-28T07:45:23.983Z,97553.00
2023-01-28T07:48:01.813Z,97555.00
2023-01-28T07:50:32.590Z,97555.00
2023-01-28T07:52:59.491Z,97551.00
2023-01-28T07:55:26.786Z,97551.00
2023-01-28T07:57:59.720Z,97568.00
2023-01-28T08:00:29.935Z,97558.00
2023-01-28T08:03:03.294Z,97565.00
2023-01-28T08:05:48.208Z,97560.00
2023-01-28T08:08:16.147Z,97558.00
2023-01-28T08:10:44.138Z,97580.00
2023-01-28T08:13:13.456Z,97567.00
2023-01-28T08:15:40.996Z,97574.00
2023-01-28T08:18:09.807Z,97583.00
2023-01-28T08:20:36.696Z,97579.00
2023-01-28T08:23:17.147Z,97578.00
2023-01-28T08:25:44.980Z,97583.00
2023-01-28T08:28:12.639Z,97578.00
2023-01-28T08:30:40.817Z,97588.00
2023-01-28T08:33:10.737Z,97591.00
2023-01-28T08:35:38.199Z,97582.00
2023-01-28T08:38:07.047Z,97586.00
2023-01-28T08:40:35.147Z,97583.00
2023-01-28T08:43:03.094Z,97587.00
2023-01-28T08:45:31.848Z,97585.00
2023-01-28T08:48:02.520Z,97598.00
2023-01-28T08:50:35.667Z,97595.00
2023-01-28T08:53:06.661Z,97596.00
2023-01-28T08:55:34.594Z,97595.00
2023-01-28T08:58:07.577Z,97597.00
2023-01-28T09:00:35.620Z,97601.00
2023-01-28T09:03:05.972Z,97612.00
2023-01-28T09:05:34.442Z,97602.00
2023-01-28T09:08:06.919Z,97604.00
2023-01-28T09:10:33.735Z,97601.00
2023-01-28T09:13:09.732Z,97612.00
2023-01-28T09:15:37.655Z,97606.00
2023-01-28T09:18:05.141Z,97613.00
2023-01-28T09:20:33.140Z,97611.00
2023-01-28T09:23:01.451Z,97601.00
2023-01-28T09:25:28.297Z,97599.00
2023-01-28T09:27:55.091Z,97613.00
2023-01-28T09:30:22.275Z,97614.00
2023-01-28T09:32:53.837Z,97618.00
2023-01-28T09:35:20.886Z,97617.00
2023-01-28T09:37:48.638Z,97624.00
2023-01-28T09:40:28.742Z,97625.00
2023-01-28T09:43:45.648Z,97626.00
2023-01-28T09:46:15.152Z,97625.00
2023-01-28T09:48:49.719Z,97626.00
2023-01-28T09:51:43.329Z,97631.00
2023-01-28T09:54:28.844Z,97625.00
2023-01-28T09:57:12.497Z,97633.00
2023-01-28T09:59:39.499Z,97629.00
2023-01-28T10:02:26.220Z,97634.00
2023-01-28T10:05:23.375Z,97635.00
2023-01-28T10:08:22.894Z,97635.00
2023-01-28T10:11:24.853Z,97635.00
2023-01-28T10:14:02.279Z,97637.00
2023-01-28T10:16:46.144Z,97628.00
2023-01-28T10:19:35.562Z,97619.00
2023-01-28T10:22:35.729Z,97618.00
2023-01-28T10:25:07.930Z,97621.00
2023-01-28T10:27:37.385Z,97622.00
2023-01-28T10:30:25.592Z,97627.00
2023-01-28T10:32:56.483Z,97629.00
2023-01-28T10:35:24.147Z,97616.00
2023-01-28T10:37:59.373Z,97614.00
2023-01-28T10:40:26.279Z,97619.00
2023-01-28T10:42:53.062Z,97610.00
2023-01-28T10:45:35.083Z,97618.00
2023-01-28T10:48:39.054Z,97602.00
2023-01-28T10:51:07.260Z,97604.00
2023-01-28T10:53:40.690Z,97604.00
2023-01-28T10:56:32.044Z,97603.00
2023-01-28T10:59:20.354Z,97604.00
2023-01-28T11:02:04.735Z,97604.00
2023-01-28T11:04:35.236Z,97601.00
2023-01-28T11:07:17.309Z,97595.00
2023-01-28T11:09:51.962Z,97594.00
2023-01-28T11:12:24.271Z,97602.00
2023-01-28T11:14:57.586Z,97605.00
2023-01-28T11:17:29.211Z,97619.00
2023-01-28T11:19:59.632Z,97612.00
2023-01-28T11:22:49.670Z,97609.00
2023-01-28T11:25:34.147Z,97605.00
2023-01-28T11:28:17.667Z,97615.00
2023-01-28T11:30:50.757Z,97606.00
2023-01-28T11:33:21.532Z,97610.00
2023-01-28T11:36:15.686Z,97615.00
2023-01-28T11:38:55.976Z,97601.00
2023-01-28T11:41:32.155Z,97604.00
2023-01-28T11:44:13.316Z,97607.00
2023-01-28T11:47:20.845Z,97598.00
2023-01-28T11:50:13.632Z,97596.00
2023-01-28T11:53:07.047Z,97600.00
2023-01-28T11:55:49.398Z,97593.00
2023-01-28T11:58:41.486Z,97602.00
2023-01-28T12:01:28.849Z,97596.00
2023-01-28T12:04:42.126Z,97594.00
2023-01-28T12:07:33.293Z,97593.00
2023-01-28T12:10:43.470Z,97593.00
2023-01-28T12:13:37.504Z,97591.00
2023-01-28T12:16:18.057Z,97595.00
2023-01-28T12:19:16.332Z,97598.00
2023-01-28T12:22:16.343Z,97603.00
2023-01-28T12:24:50.872Z,97598.00
2023-01-28T12:27:54.955Z,97607.00
2023-01-28T12:30:43.108Z,97600.00
2023-01-28T12:33:37.433Z,97611.00
2023-01-28T12:36:24.937Z,97597.00
2023-01-28T12:39:22.802Z,97606.00
2023-01-28T12:42:11.108Z,97602.00
2023-01-28T12:44:46.542Z,97611.00
2023-01-28T12:47:21.656Z,97599.00
2023-01-28T12:49:55.279Z,97603.00
2023-01-28T12:52:29.750Z,97603.00
2023-01-28T12:55:13.138Z,97594.00
2023-01-28T12:57:41.428Z,97604.00
2023-01-28T13:00:27.232Z,97605.00
2023-01-28T13:03:21.898Z,97606.00
2023-01-28T13:05:59.370Z,97606.00
2023-01-28T13:08:29.006Z,97602.00
2023-01-28T13:10:59.116Z,97604.00
2023-01-28T13:13:32.591Z,97613.00
2023-01-28T13:16:00.660Z,97607.00
2023-01-28T13:18:45.623Z,97602.00
2023-01-28T13:21:24.178Z,97600.00
2023-01-28T13:24:03.650Z,97604.00
2023-01-28T13:26:42.661Z,97607.00
2023-01-28T13:29:15.201Z,97614.00
2023-01-28T13:31:50.531Z,97602.00
2023-01-28T13:34:33.726Z,97612.00
2023-01-28T13:37:26.327Z,97612.00
2023-01-28T13:40:17.209Z,97618.00
2023-01-28T13:42:44.067Z,97613.00
2023-01-28T13:45:17.266Z,97620.00
2023-01-28T13:47:52.786Z,97622.00
2023-01-28T13:50:24.806Z,97632.00
2023-01-28T13:53:05.208Z,97616.00
2023-01-28T13:55:44.773Z,97625.00
2023-01-28T13:58:45.061Z,97629.00
2023-01-28T14:02:00.340Z,97625.00
2023-01-28T14:05:06.552Z,97630.00
2023-01-28T14:08:02.714Z,97635.00
2023-01-28T14:10:42.524Z,97632.00
2023-01-28T14:13:36.743Z,97629.00
2023-01-28T14:16:20.065Z,97630.00
2023-01-28T14:18:48.416Z,97636.00
2023-01-28T14:21:21.870Z,97636.00
2023-01-28T14:23:55.193Z,97646.00
2023-01-28T14:26:55.386Z,97644.00
2023-01-28T14:29:52.999Z,97644.00
2023-01-28T14:32:27.070Z,97642.00
2023-01-28T14:34:55.901Z,97660.00
2023-01-28T14:37:29.150Z,97653.00
2023-01-28T14:40:00.367Z,97663.00
2023-01-28T14:42:40.582Z,97658.00
2023-01-28T14:45:30.251Z,97658.00
2023-01-28T14:48:09.221Z,97655.00
2023-01-28T14:51:02.272Z,97665.00
2023-01-28T14:53:50.525Z,97668.00
2023-01-28T14:57:02.378Z,97668.00
2023-01-28T14:59:49.640Z,97675.00
2023-01-28T15:02:24.062Z,97679.00
2023-01-28T15:04:52.078Z,97679.00
2023-01-28T15:07:25.704Z,97680.00
2023-01-28T15:10:25.721Z,97682.00
2023-01-28T15:13:03.615Z,97679.00
2023-01-28T15:15:37.462Z,97688.00
2023-01-28T15:18:28.531Z,97697.00
2023-01-28T15:20:56.537Z,97699.00
2023-01-28T15:23:39.308Z,97699.00
2023-01-28T15:26:27.891Z,97703.00
2023-01-28T15:28:56.099Z,97702.00
2023-01-28T15:31:28.196Z,97713.00
2023-01-28T15:34:02.430Z,97715.00
2023-01-28T15:36:30.667Z,97705.00
2023-01-28T15:38:58.270Z,97713.00
2023-01-28T15:41:33.931Z,97720.00
2023-01-28T15:44:01.233Z,97722.00
2023-01-28T15:46:28.260Z,97725.00
2023-01-28T15:49:01.624Z,97728.00
2023-01-28T15:51:32.223Z,97724.00
2023-01-28T15:54:10.920Z,97731.00
2023-01-28T15:56:37.862Z,97743.00
2023-01-28T15:59:35.028Z,97742.00
2023-01-28T16:02:25.901Z,97743.00
2023-01-28T16:05:04.976Z,97738.00
2023-01-28T16:07:33.476Z,97752.00
2023-01-28T16:10:03.519Z,97750.00
2023-01-28T16:12:30.420Z,97756.00
2023-01-28T16:15:01.040Z,97750.00
2023-01-28T16:17:50.908Z,97759.00
2023-01-28T16:20:24.381Z,97766.00
2023-01-28T16:22:54.981Z,97755.00
2023-01-28T16:25:21.719Z,97769.00
2023-01-28T16:27:48.924Z,97768.00
2023-01-28T16:30:16.942Z,97769.00
2023-01-28T16:32:44.395Z,97770.00
2023-01-28T16:35:28.478Z,97778.00
2023-01-28T16:38:00.154Z,97773.00
2023-01-28T16:40:27.214Z,97775.00
2023-01-28T16:42:55.875Z,97774.00
2023-01-28T16:45:24.941Z,97770.00
2023-01-28T16:47:53.071Z,97767.00
2023-01-28T16:50:21.873Z,97769.00
2023-01-28T16:52:51.865Z,97776.00
2023-01-28T16:55:21.391Z,97782.00
2023-01-28T16:57:53.047Z,97769.00
2023-01-28T17:00:25.735Z,97774.00
2023-01-28T17:02:54.402Z,97787.00
2023-01-28T17:05:22.225Z,97791.00
2023-01-28T17:07:50.104Z,97781.00
2023-01-28T17:10:17.739Z,97791.00
2023-01-28T17:12:45.047Z,97789.00
2023-01-28T17:15:11.961Z,97787.00
2023-01-28T17:17:38.806Z,97786.00
2023-01-28T17:20:06.577Z,97773.00
2023-01-28T17:22:33.397Z,97789.00
2023-01-28T17:25:00.207Z,97776.00
2023-01-28T17:27:27.319Z,97774.00
2023-01-28T17:29:54.233Z,97780.00
2023-01-28T17:32:20.975Z,97792.00
2023-01-28T17:34:48.099Z,97780.00
2023-01-28T17:37:14.987Z,97791.00
2023-01-28T17:39:41.789Z,97794.00
2023-01-28T17:42:08.563Z,97793.00
2023-01-28T17:44:35.445Z,97803.00
2023-01-28T17:47:02.301Z,97801.00
2023-01-28T17:49:29.163Z,97804.00
2023-01-28T17:51:55.938Z,97805.00
2023-01-28T17:54:25.665Z,97814.00
2023-01-28T17:56:52.559Z,97820.00
2023-01-28T17:59:19.413Z,97816.00
2023-01-28T18:01:47.278Z,97821.00
2023-01-28T18:04:14.161Z,97824.00
2023-01-28T18:06:40.948Z,97834.00
2023-01-28T18:09:09.140Z,97834.00
2023-01-28T18:11:35.987Z,97839.00
2023-01-28T18:14:02.798Z,97833.00
2023-01-28T18:16:29.667Z,97827.00
2023-01-28T18:18:56.617Z,97827.00
2023-01-28T18:21:42.891Z,97827.00
2023-01-28T18:24:13.559Z,97832.00
2023-01-28T18:26:40.390Z,97833.00
2023-01-28T18:29:07.250Z,97827.00
2023-01-28T18:31:34.571Z,97828.00
2023-01-28T18:34:03.160Z,97834.00
2023-01-28T18:36:29.979Z,97829.00
2023-01-28T18:38:56.842Z,97833.00
2023-01-28T18:41:23.638Z,97832.00
2023-01-28T18:43:50.445Z,97831.00
2023-01-28T18:46:18.419Z,97834.00
2023-01-28T18:48:45.194Z,97832.00
2023-01-28T18:51:28.508Z,97835.00
2023-01-28T18:54:02.132Z,97825.00
2023-01-28T18:56:29.988Z,97835.00
2023-01-28T18:59:06.352Z,97829.00
2023-01-28T19:01:34.990Z,97824.00
2023-01-28T19:04:02.941Z,97834.00
2023-01-28T19:06:31.547Z,97833.00
2023-01-28T19:09:01.609Z,97839.00
2023-01-28T19:11:30.448Z,97844.00
2023-01-28T19:13:57.634Z,97836.00
2023-01-28T19:16:25.491Z,97845.00
2023-01-28T19:18:54.730Z,97846.00
2023-01-28T19:21:23.115Z,97851.00
2023-01-28T19:23:56.219Z,97845.00
2023-01-28T19:26:24.669Z,97845.00
2023-01-28T19:28:52.021Z,97849.00
2023-01-28T19:31:20.858Z,97844.00
2023-01-28T19:33:48.713Z,97858.00
2023-01-28T19:36:16.052Z,97850.00
2023-01-28T19:38:43.072Z,97846.00
2023-01-28T19:41:09.985Z,97845.00
2023-01-28T19:43:36.770Z,97839.00
2023-01-28T19:46:05.986Z,97850.00
2023-01-28T19:48:33.632Z,97846.00
2023-01-28T19:51:09.574Z,97843.00
2023-01-28T19:53:37.871Z,97854.00
2023-01-28T19:56:09.672Z,97857.00
2023-01-28T19:58:39.730Z,97853.00
2023-01-28T20:01:13.205Z,97857.00
2023-01-28T20:03:40.444Z,97859.00
2023-01-28T20:06:12.684Z,97844.00
2023-01-28T20:08:39.771Z,97844.00
2023-01-28T20:11:14.885Z,97855.00
2023-01-28T20:13:45.164Z,97863.00
2023-01-28T20:16:23.133Z,97867.00
2023-01-28T20:18:56.749Z,97852.00
2023-01-28T20:21:24.472Z,97857.00
2023-01-28T20:23:53.925Z,97859.00
2023-01-28T20:26:25.373Z,97862.00
2023-01-28T20:28:52.327Z,97851.00
2023-01-28T20:31:20.646Z,97862.00
2023-01-28T20:33:47.930Z,97864.00
2023-01-28T20:36:15.041Z,97860.00
2023-01-28T20:38:45.286Z,97859.00
2023-01-28T20:41:22.561Z,97860.00
2023-01-28T20:43:51.247Z,97858.00
2023-01-28T20:46:22.641Z,97860.00
2023-01-28T20:48:49.463Z,97865.00
2023-01-28T20:51:26.363Z,97872.00
2023-01-28T20:53:54.020Z,97872.00
2023-01-28T20:56:24.326Z,97876.00
2023-01-28T20:59:01.346Z,97868.00
2023-01-28T21:01:32.206Z,97876.00
2023-01-28T21:03:59.478Z,97889.00
2023-01-28T21:06:27.022Z,97883.00
2023-01-28T21:08:53.856Z,97878.00
2023-01-28T21:11:22.101Z,97880.00
2023-01-28T21:13:49.283Z,97873.00
2023-01-28T21:16:16.244Z,97881.00
2023-01-28T21:18:43.093Z,97885.00
2023-01-28T21:21:16.454Z,97890.00
2023-01-28T21:23:43.344Z,97897.00
2023-01-28T21:26:10.741Z,97900.00
2023-01-28T21:28:37.652Z,97908.00
2023-01-28T21:31:25.627Z,97904.00
2023-01-28T21:33:55.559Z,97902.00
2023-01-28T21:36:23.292Z,97903.00
2023-01-28T21:38:59.208Z,97901.00
2023-01-28T21:41:27.052Z,97900.00
2023-01-28T21:43:55.649Z,97886.00
2023-01-28T21:46:26.473Z,97884.00
2023-01-28T21:49:11.410Z,97883.00
2023-01-28T21:51:47.226Z,97883.00
2023-01-28T21:54:19.354Z,97883.00
2023-01-28T21:56:48.913Z,97888.00
2023-01-28T21:59:29.504Z,97887.00
2023-01-28T22:02:13.266Z,97885.00
2023-01-28T22:04:43.355Z,97885.00
2023-01-28T22:07:13.090Z,97888.00
2023-01-28T22:09:40.219Z,97885.00
2023-01-28T22:12:08.088Z,97882.00
2023-01-28T22:14:36.230Z,97887.00
2023-01-28T22:17:04.352Z,97891.00
2023-01-28T22:19:31.249Z,97893.00
2023-01-28T22:21:58.000Z,97889.00
2023-01-28T22:24:25.243Z,97887.00
2023-01-28T22:26:53.781Z,97891.00
2023-01-28T22:29:22.274Z,97893.00
2023-01-28T22:31:51.959Z,97904.00
2023-01-28T22:34:20.279Z,97897.00
2023-01-28T22:36:47.547Z,97900.00
2023-01-28T22:39:16.501Z,97899.00
2023-01-28T22:41:44.877Z,97906.00
2023-01-28T22:44:11.898Z,97896.00
2023-01-28T22:46:38.826Z,97895.00
2023-01-28T22:49:05.900Z,97903.00
2023-01-28T22:51:35.801Z,97902.00
2023-01-28T22:54:03.766Z,97897.00
2023-01-28T22:56:31.124Z,97891.00
2023-01-28T22:59:01.080Z,97902.00
2023-01-28T23:01:28.200Z,97896.00
2023-01-28T23:03:56.232Z,97889.00
2023-01-28T23:06:25.450Z,97899.00
2023-01-28T23:08:52.861Z,97892.00
2023-01-28T23:11:25.583Z,97906.00
2023-01-28T23:14:14.051Z,97905.00
2023-01-28T23:16:59.511Z,97893.00
2023-01-28T23:19:45.361Z,97897.00
2023-01-28T23:22:51.033Z,97898.00
2023-01-28T23:25:19.250Z,97896.00
2023-01-28T23:27:46.111Z,97903.00
2023-01-28T23:30:14.516Z,97893.00
2023-01-28T23:32:47.364Z,97887.00
2023-01-28T23:35:14.647Z,97899.00
2023-01-28T23:37:41.570Z,97904.00
2023-01-28T23:40:09.546Z,97910.00
2023-01-28T23:42:36.338Z,97911.00
2023-01-28T23:45:03.911Z,97901.00
2023-01-28T23:47:31.118Z,97902.00
2023-01-28T23:49:57.975Z,97897.00
2023-01-28T23:52:26.632Z,97901.00
2023-01-28T23:54:53.579Z,97891.00
2023-01-28T23:57:20.375Z,97891.00
2023-01-28T23:59:47.158Z,97893.00
